Sign in

Links

Info

Aviation weather - KDAB

METAR KDAB 200753Z 07008KT 10SM SCT036 23/22 A3011 RMK AO2 RAB0657E06 SLP194 P0000 T02330217 $

TAF KDAB 200529Z 2006/2106 05008KT P6SM SCT025 BKN050 FM201400 06013G20KT P6SM SCT030 SCT050 FM210000 07009KT P6SM SCT025

Aviation weather from ADDS. Re-check weather before flight.

-